sensor_id;sensor_type;location;lat;lon;timestamp;P1;durP1;ratioP1;P2;durP2;ratioP2
21492;SDS011;10908;50.690;4.400;2023-04-03T00:01:16;12.48;;;5.80;;
21492;SDS011;10908;50.690;4.400;2023-04-03T00:03:43;10.38;;;5.53;;
21492;SDS011;10908;50.690;4.400;2023-04-03T00:06:09;11.65;;;5.80;;
21492;SDS011;10908;50.690;4.400;2023-04-03T00:08:36;10.80;;;5.38;;
21492;SDS011;10908;50.690;4.400;2023-04-03T00:11:02;11.90;;;5.70;;
21492;SDS011;10908;50.690;4.400;2023-04-03T00:13:29;8.98;;;5.35;;
21492;SDS011;10908;50.690;4.400;2023-04-03T00:15:55;11.05;;;5.50;;
21492;SDS011;10908;50.690;4.400;2023-04-03T00:18:21;11.02;;;5.25;;
21492;SDS011;10908;50.690;4.400;2023-04-03T00:20:47;11.18;;;5.60;;
21492;SDS011;10908;50.690;4.400;2023-04-03T00:23:14;11.35;;;5.60;;
21492;SDS011;10908;50.690;4.400;2023-04-03T00:25:40;10.23;;;5.72;;
21492;SDS011;10908;50.690;4.400;2023-04-03T00:28:06;13.02;;;5.32;;
21492;SDS011;10908;50.690;4.400;2023-04-03T00:30:32;12.38;;;5.60;;
21492;SDS011;10908;50.690;4.400;2023-04-03T00:32:58;10.60;;;5.50;;
21492;SDS011;10908;50.690;4.400;2023-04-03T00:35:25;10.65;;;5.53;;
21492;SDS011;10908;50.690;4.400;2023-04-03T00:37:51;11.95;;;5.28;;
21492;SDS011;10908;50.690;4.400;2023-04-03T00:40:18;11.88;;;5.55;;
21492;SDS011;10908;50.690;4.400;2023-04-03T00:42:45;10.48;;;5.10;;
21492;SDS011;10908;50.690;4.400;2023-04-03T00:47:44;13.50;;;5.40;;
21492;SDS011;10908;50.690;4.400;2023-04-03T00:50:10;13.43;;;5.60;;
21492;SDS011;10908;50.690;4.400;2023-04-03T00:52:36;10.45;;;5.18;;
21492;SDS011;10908;50.690;4.400;2023-04-03T00:55:05;11.23;;;5.47;;
21492;SDS011;10908;50.690;4.400;2023-04-03T00:57:33;11.65;;;5.28;;
21492;SDS011;10908;50.690;4.400;2023-04-03T15:55:23;5.88;;;1.52;;
21492;SDS011;10908;50.690;4.400;2023-04-03T15:57:50;6.47;;;1.92;;
21492;SDS011;10908;50.690;4.400;2023-04-03T16:00:16;5.82;;;1.90;;
21492;SDS011;10908;50.690;4.400;2023-04-03T16:02:42;5.07;;;1.63;;
21492;SDS011;10908;50.690;4.400;2023-04-03T16:05:10;6.63;;;1.70;;
21492;SDS011;10908;50.690;4.400;2023-04-03T16:07:39;5.95;;;1.80;;
21492;SDS011;10908;50.690;4.400;2023-04-03T16:10:06;7.95;;;1.60;;
21492;SDS011;10908;50.690;4.400;2023-04-03T16:12:34;6.50;;;2.50;;
21492;SDS011;10908;50.690;4.400;2023-04-03T16:15:00;4.10;;;1.30;;
21492;SDS011;10908;50.690;4.400;2023-04-03T16:17:26;6.53;;;1.70;;
21492;SDS011;10908;50.690;4.400;2023-04-03T16:19:53;5.10;;;1.77;;
21492;SDS011;10908;50.690;4.400;2023-04-03T16:22:20;7.35;;;1.55;;
21492;SDS011;10908;50.690;4.400;2023-04-03T16:24:46;7.90;;;1.88;;
21492;SDS011;10908;50.690;4.400;2023-04-03T16:27:12;6.15;;;1.70;;
21492;SDS011;10908;50.690;4.400;2023-04-03T16:29:37;7.10;;;1.42;;
21492;SDS011;10908;50.690;4.400;2023-04-03T16:32:03;5.38;;;1.65;;
21492;SDS011;10908;50.690;4.400;2023-04-03T16:34:29;4.20;;;1.45;;
21492;SDS011;10908;50.690;4.400;2023-04-03T16:36:57;6.07;;;1.77;;
21492;SDS011;10908;50.690;4.400;2023-04-03T16:39:23;6.38;;;1.77;;
21492;SDS011;10908;50.690;4.400;2023-04-03T16:41:49;4.53;;;1.60;;
21492;SDS011;10908;50.690;4.400;2023-04-03T16:44:14;5.65;;;2.00;;
21492;SDS011;10908;50.690;4.400;2023-04-03T16:46:40;4.93;;;1.73;;
21492;SDS011;10908;50.690;4.400;2023-04-03T16:49:06;5.35;;;1.48;;
21492;SDS011;10908;50.690;4.400;2023-04-03T16:51:32;4.68;;;1.52;;
21492;SDS011;10908;50.690;4.400;2023-04-03T16:53:58;5.38;;;1.58;;
21492;SDS011;10908;50.690;4.400;2023-04-03T16:56:24;7.32;;;1.73;;
21492;SDS011;10908;50.690;4.400;2023-04-03T16:58:51;5.65;;;1.55;;
21492;SDS011;10908;50.690;4.400;2023-04-03T17:01:19;7.50;;;1.50;;
21492;SDS011;10908;50.690;4.400;2023-04-03T17:03:46;4.38;;;1.60;;
21492;SDS011;10908;50.690;4.400;2023-04-03T17:06:14;7.22;;;1.50;;
21492;SDS011;10908;50.690;4.400;2023-04-03T17:08:42;4.55;;;1.25;;
21492;SDS011;10908;50.690;4.400;2023-04-03T17:11:09;4.60;;;1.55;;
21492;SDS011;10908;50.690;4.400;2023-04-03T17:13:35;6.78;;;1.83;;
21492;SDS011;10908;50.690;4.400;2023-04-03T17:16:01;5.82;;;1.50;;
21492;SDS011;10908;50.690;4.400;2023-04-03T17:18:29;4.60;;;1.60;;
21492;SDS011;10908;50.690;4.400;2023-04-03T17:20:56;7.65;;;1.80;;
21492;SDS011;10908;50.690;4.400;2023-04-03T17:23:25;7.75;;;1.75;;
21492;SDS011;10908;50.690;4.400;2023-04-03T17:25:53;7.35;;;1.90;;
21492;SDS011;10908;50.690;4.400;2023-04-03T17:28:19;8.85;;;2.20;;
21492;SDS011;10908;50.690;4.400;2023-04-03T17:30:53;6.45;;;2.03;;
21492;SDS011;10908;50.690;4.400;2023-04-03T17:33:23;8.30;;;2.10;;
21492;SDS011;10908;50.690;4.400;2023-04-03T17:35:50;6.78;;;1.98;;
21492;SDS011;10908;50.690;4.400;2023-04-03T17:38:16;6.45;;;1.80;;
21492;SDS011;10908;50.690;4.400;2023-04-03T17:40:41;7.20;;;1.83;;
21492;SDS011;10908;50.690;4.400;2023-04-03T17:43:08;4.97;;;1.58;;
21492;SDS011;10908;50.690;4.400;2023-04-03T17:45:36;5.00;;;1.80;;
21492;SDS011;10908;50.690;4.400;2023-04-03T17:48:02;5.63;;;1.80;;
21492;SDS011;10908;50.690;4.400;2023-04-03T17:50:28;6.32;;;1.83;;
21492;SDS011;10908;50.690;4.400;2023-04-03T17:52:54;6.20;;;1.77;;
21492;SDS011;10908;50.690;4.400;2023-04-03T17:55:20;7.00;;;2.00;;
21492;SDS011;10908;50.690;4.400;2023-04-03T17:57:46;5.15;;;1.73;;
21492;SDS011;10908;50.690;4.400;2023-04-03T18:00:12;6.80;;;1.88;;
21492;SDS011;10908;50.690;4.400;2023-04-03T18:02:39;6.13;;;1.73;;
21492;SDS011;10908;50.690;4.400;2023-04-03T18:05:06;7.32;;;1.95;;
21492;SDS011;10908;50.690;4.400;2023-04-03T18:07:34;4.70;;;1.65;;
21492;SDS011;10908;50.690;4.400;2023-04-03T18:10:03;7.20;;;1.60;;
21492;SDS011;10908;50.690;4.400;2023-04-03T18:12:32;6.10;;;1.80;;
21492;SDS011;10908;50.690;4.400;2023-04-03T18:14:59;9.43;;;2.33;;
21492;SDS011;10908;50.690;4.400;2023-04-03T18:17:24;6.07;;;1.80;;
21492;SDS011;10908;50.690;4.400;2023-04-03T18:19:53;5.20;;;1.65;;
21492;SDS011;10908;50.690;4.400;2023-04-03T18:22:19;6.85;;;2.00;;
21492;SDS011;10908;50.690;4.400;2023-04-03T18:24:48;5.47;;;1.92;;
21492;SDS011;10908;50.690;4.400;2023-04-03T18:27:16;4.57;;;1.70;;
21492;SDS011;10908;50.690;4.400;2023-04-03T18:29:45;6.15;;;1.90;;
21492;SDS011;10908;50.690;4.400;2023-04-03T18:32:15;5.50;;;1.77;;
21492;SDS011;10908;50.690;4.400;2023-04-03T18:34:43;7.28;;;2.20;;
21492;SDS011;10908;50.690;4.400;2023-04-03T18:37:09;8.18;;;2.00;;
21492;SDS011;10908;50.690;4.400;2023-04-03T18:39:34;7.85;;;2.00;;
21492;SDS011;10908;50.690;4.400;2023-04-03T18:42:05;5.95;;;2.10;;
21492;SDS011;10908;50.690;4.400;2023-04-03T18:44:33;5.13;;;1.73;;
21492;SDS011;10908;50.690;4.400;2023-04-03T18:47:00;7.13;;;1.92;;
21492;SDS011;10908;50.690;4.400;2023-04-03T18:49:29;6.82;;;1.90;;
21492;SDS011;10908;50.690;4.400;2023-04-03T18:51:58;7.40;;;1.90;;
21492;SDS011;10908;50.690;4.400;2023-04-03T18:54:24;11.88;;;1.88;;
21492;SDS011;10908;50.690;4.400;2023-04-03T18:56:50;7.63;;;1.98;;
21492;SDS011;10908;50.690;4.400;2023-04-03T18:59:15;6.65;;;2.60;;
21492;SDS011;10908;50.690;4.400;2023-04-03T19:01:41;7.45;;;2.20;;
21492;SDS011;10908;50.690;4.400;2023-04-03T19:04:06;5.47;;;2.05;;
21492;SDS011;10908;50.690;4.400;2023-04-03T19:06:32;8.30;;;2.60;;
21492;SDS011;10908;50.690;4.400;2023-04-03T19:08:59;11.85;;;2.20;;
21492;SDS011;10908;50.690;4.400;2023-04-03T19:11:25;8.20;;;2.40;;
21492;SDS011;10908;50.690;4.400;2023-04-03T19:13:51;9.00;;;2.30;;
21492;SDS011;10908;50.690;4.400;2023-04-03T19:16:17;7.95;;;2.20;;
21492;SDS011;10908;50.690;4.400;2023-04-03T19:18:43;6.85;;;2.47;;
21492;SDS011;10908;50.690;4.400;2023-04-03T19:21:08;6.72;;;2.63;;
21492;SDS011;10908;50.690;4.400;2023-04-03T19:23:34;7.28;;;2.45;;
21492;SDS011;10908;50.690;4.400;2023-04-03T19:26:05;6.93;;;1.98;;
21492;SDS011;10908;50.690;4.400;2023-04-03T19:28:32;5.22;;;1.83;;
21492;SDS011;10908;50.690;4.400;2023-04-03T19:30:58;6.85;;;1.73;;
21492;SDS011;10908;50.690;4.400;2023-04-03T19:33:26;5.20;;;2.00;;
21492;SDS011;10908;50.690;4.400;2023-04-03T19:35:53;8.30;;;2.00;;
21492;SDS011;10908;50.690;4.400;2023-04-03T19:38:19;8.45;;;2.80;;
21492;SDS011;10908;50.690;4.400;2023-04-03T19:40:45;8.02;;;1.98;;
21492;SDS011;10908;50.690;4.400;2023-04-03T19:43:11;6.10;;;2.10;;
21492;SDS011;10908;50.690;4.400;2023-04-03T19:45:38;4.80;;;1.63;;
21492;SDS011;10908;50.690;4.400;2023-04-03T19:48:04;6.15;;;2.42;;
21492;SDS011;10908;50.690;4.400;2023-04-03T19:50:31;6.70;;;2.30;;
21492;SDS011;10908;50.690;4.400;2023-04-03T19:52:58;8.52;;;1.88;;
21492;SDS011;10908;50.690;4.400;2023-04-03T19:55:24;7.82;;;1.98;;
21492;SDS011;10908;50.690;4.400;2023-04-03T19:57:54;6.30;;;2.35;;
21492;SDS011;10908;50.690;4.400;2023-04-03T20:00:23;5.05;;;1.80;;
21492;SDS011;10908;50.690;4.400;2023-04-03T20:02:50;7.30;;;2.00;;
21492;SDS011;10908;50.690;4.400;2023-04-03T20:05:16;4.78;;;1.77;;
21492;SDS011;10908;50.690;4.400;2023-04-03T20:07:42;7.35;;;2.10;;
21492;SDS011;10908;50.690;4.400;2023-04-03T20:10:07;7.10;;;2.00;;
21492;SDS011;10908;50.690;4.400;2023-04-03T20:12:34;5.38;;;1.70;;
21492;SDS011;10908;50.690;4.400;2023-04-03T20:15:01;8.98;;;2.30;;
21492;SDS011;10908;50.690;4.400;2023-04-03T20:17:28;4.90;;;1.60;;
21492;SDS011;10908;50.690;4.400;2023-04-03T20:19:54;6.38;;;2.00;;
21492;SDS011;10908;50.690;4.400;2023-04-03T20:22:25;6.22;;;1.73;;
21492;SDS011;10908;50.690;4.400;2023-04-03T20:24:54;7.22;;;1.67;;
21492;SDS011;10908;50.690;4.400;2023-04-03T20:27:20;6.25;;;1.73;;
21492;SDS011;10908;50.690;4.400;2023-04-03T20:29:46;5.88;;;1.70;;
21492;SDS011;10908;50.690;4.400;2023-04-03T20:32:12;4.75;;;1.50;;
21492;SDS011;10908;50.690;4.400;2023-04-03T20:34:40;5.18;;;1.70;;
21492;SDS011;10908;50.690;4.400;2023-04-03T20:37:06;6.85;;;1.67;;
21492;SDS011;10908;50.690;4.400;2023-04-03T20:39:32;8.15;;;2.00;;
21492;SDS011;10908;50.690;4.400;2023-04-03T20:41:58;4.93;;;1.45;;
21492;SDS011;10908;50.690;4.400;2023-04-03T20:44:24;7.65;;;1.90;;
21492;SDS011;10908;50.690;4.400;2023-04-03T20:46:50;5.45;;;1.98;;
21492;SDS011;10908;50.690;4.400;2023-04-03T20:49:16;7.55;;;1.63;;
21492;SDS011;10908;50.690;4.400;2023-04-03T20:51:42;6.47;;;1.60;;
21492;SDS011;10908;50.690;4.400;2023-04-03T20:54:08;5.05;;;1.70;;
21492;SDS011;10908;50.690;4.400;2023-04-03T20:56:34;6.38;;;1.60;;
21492;SDS011;10908;50.690;4.400;2023-04-03T20:59:00;4.95;;;1.50;;
21492;SDS011;10908;50.690;4.400;2023-04-03T21:01:29;5.18;;;1.63;;
21492;SDS011;10908;50.690;4.400;2023-04-03T21:04:00;8.98;;;2.22;;
21492;SDS011;10908;50.690;4.400;2023-04-03T21:20:36;5.15;;;1.50;;
21492;SDS011;10908;50.690;4.400;2023-04-03T21:23:03;6.80;;;1.60;;
21492;SDS011;10908;50.690;4.400;2023-04-03T21:25:29;6.78;;;1.77;;
21492;SDS011;10908;50.690;4.400;2023-04-03T21:27:55;6.15;;;1.70;;
21492;SDS011;10908;50.690;4.400;2023-04-03T21:30:21;5.78;;;1.55;;
21492;SDS011;10908;50.690;4.400;2023-04-03T21:32:47;4.70;;;1.60;;
21492;SDS011;10908;50.690;4.400;2023-04-03T21:35:12;7.18;;;1.80;;
21492;SDS011;10908;50.690;4.400;2023-04-03T21:37:37;5.75;;;1.52;;
21492;SDS011;10908;50.690;4.400;2023-04-03T21:40:03;7.53;;;1.75;;
21492;SDS011;10908;50.690;4.400;2023-04-03T21:42:29;6.15;;;1.75;;
21492;SDS011;10908;50.690;4.400;2023-04-03T21:44:55;5.30;;;1.50;;
21492;SDS011;10908;50.690;4.400;2023-04-03T21:47:22;7.38;;;1.90;;
21492;SDS011;10908;50.690;4.400;2023-04-03T21:49:47;6.97;;;1.85;;
21492;SDS011;10908;50.690;4.400;2023-04-03T21:52:13;6.78;;;1.90;;
21492;SDS011;10908;50.690;4.400;2023-04-03T21:54:39;6.40;;;1.40;;
21492;SDS011;10908;50.690;4.400;2023-04-03T21:57:05;5.97;;;1.67;;
21492;SDS011;10908;50.690;4.400;2023-04-03T21:59:35;6.65;;;1.90;;
21492;SDS011;10908;50.690;4.400;2023-04-03T22:02:01;6.72;;;1.60;;
21492;SDS011;10908;50.690;4.400;2023-04-03T22:04:27;5.15;;;1.60;;
21492;SDS011;10908;50.690;4.400;2023-04-03T22:06:54;6.53;;;1.70;;
21492;SDS011;10908;50.690;4.400;2023-04-03T22:09:21;6.38;;;1.60;;
21492;SDS011;10908;50.690;4.400;2023-04-03T22:11:47;5.40;;;1.45;;
21492;SDS011;10908;50.690;4.400;2023-04-03T22:14:13;6.07;;;1.60;;
21492;SDS011;10908;50.690;4.400;2023-04-03T22:16:40;5.25;;;1.58;;
21492;SDS011;10908;50.690;4.400;2023-04-03T22:19:06;6.70;;;1.60;;
21492;SDS011;10908;50.690;4.400;2023-04-03T22:21:31;5.05;;;1.67;;
21492;SDS011;10908;50.690;4.400;2023-04-03T22:23:57;5.70;;;1.70;;
21492;SDS011;10908;50.690;4.400;2023-04-03T22:26:23;5.57;;;1.90;;
21492;SDS011;10908;50.690;4.400;2023-04-03T22:28:50;6.15;;;1.90;;
21492;SDS011;10908;50.690;4.400;2023-04-03T22:31:16;6.63;;;1.85;;
21492;SDS011;10908;50.690;4.400;2023-04-03T22:33:42;10.85;;;1.80;;
21492;SDS011;10908;50.690;4.400;2023-04-03T22:36:09;6.25;;;1.70;;
21492;SDS011;10908;50.690;4.400;2023-04-03T22:38:36;8.07;;;2.35;;
21492;SDS011;10908;50.690;4.400;2023-04-03T22:41:06;5.15;;;1.50;;
21492;SDS011;10908;50.690;4.400;2023-04-03T22:43:32;5.22;;;1.63;;
21492;SDS011;10908;50.690;4.400;2023-04-03T22:45:59;6.07;;;1.80;;
21492;SDS011;10908;50.690;4.400;2023-04-03T22:48:26;6.90;;;1.70;;
21492;SDS011;10908;50.690;4.400;2023-04-03T22:50:52;6.57;;;1.77;;
21492;SDS011;10908;50.690;4.400;2023-04-03T22:53:18;5.63;;;2.05;;
21492;SDS011;10908;50.690;4.400;2023-04-03T22:55:57;7.78;;;1.90;;
21492;SDS011;10908;50.690;4.400;2023-04-03T22:58:24;5.63;;;1.67;;
21492;SDS011;10908;50.690;4.400;2023-04-03T23:00:54;8.00;;;1.80;;
21492;SDS011;10908;50.690;4.400;2023-04-03T23:03:28;6.85;;;1.90;;
21492;SDS011;10908;50.690;4.400;2023-04-03T23:05:53;6.47;;;1.67;;
21492;SDS011;10908;50.690;4.400;2023-04-03T23:08:20;6.40;;;1.90;;
21492;SDS011;10908;50.690;4.400;2023-04-03T23:10:46;5.43;;;1.70;;
21492;SDS011;10908;50.690;4.400;2023-04-03T23:13:11;7.32;;;1.77;;
21492;SDS011;10908;50.690;4.400;2023-04-03T23:15:37;10.65;;;1.75;;
21492;SDS011;10908;50.690;4.400;2023-04-03T23:18:03;5.30;;;1.60;;
21492;SDS011;10908;50.690;4.400;2023-04-03T23:20:29;5.85;;;1.73;;
21492;SDS011;10908;50.690;4.400;2023-04-03T23:22:55;8.05;;;1.88;;
21492;SDS011;10908;50.690;4.400;2023-04-03T23:25:21;4.40;;;1.50;;
21492;SDS011;10908;50.690;4.400;2023-04-03T23:27:50;8.40;;;1.80;;
21492;SDS011;10908;50.690;4.400;2023-04-03T23:30:19;5.97;;;1.90;;
21492;SDS011;10908;50.690;4.400;2023-04-03T23:32:45;5.75;;;1.70;;
21492;SDS011;10908;50.690;4.400;2023-04-03T23:35:12;8.93;;;1.83;;
21492;SDS011;10908;50.690;4.400;2023-04-03T23:37:38;7.00;;;1.73;;
21492;SDS011;10908;50.690;4.400;2023-04-03T23:40:04;5.90;;;1.58;;
21492;SDS011;10908;50.690;4.400;2023-04-03T23:42:31;6.03;;;1.90;;
21492;SDS011;10908;50.690;4.400;2023-04-03T23:44:56;6.40;;;1.77;;
21492;SDS011;10908;50.690;4.400;2023-04-03T23:47:22;6.32;;;2.28;;
21492;SDS011;10908;50.690;4.400;2023-04-03T23:49:48;6.38;;;1.85;;
21492;SDS011;10908;50.690;4.400;2023-04-03T23:52:14;6.55;;;2.03;;
21492;SDS011;10908;50.690;4.400;2023-04-03T23:54:39;10.70;;;2.10;;
21492;SDS011;10908;50.690;4.400;2023-04-03T23:57:05;5.95;;;2.10;;
21492;SDS011;10908;50.690;4.400;2023-04-03T23:59:30;8.35;;;1.85;;
